sensor_id;sensor_type;location;lat;lon;timestamp;P1;durP1;ratioP1;P2;durP2;ratioP2
20124;SDS011;10223;50.862;4.360;2023-06-10T00:01:28;11.50;;;7.53;;
20124;SDS011;10223;50.862;4.360;2023-06-10T00:03:55;9.75;;;7.05;;
20124;SDS011;10223;50.862;4.360;2023-06-10T00:06:23;11.63;;;8.18;;
20124;SDS011;10223;50.862;4.360;2023-06-10T00:08:50;14.77;;;8.75;;
20124;SDS011;10223;50.862;4.360;2023-06-10T00:11:17;18.10;;;11.57;;
20124;SDS011;10223;50.862;4.360;2023-06-10T00:13:44;11.52;;;8.75;;
20124;SDS011;10223;50.862;4.360;2023-06-10T00:16:11;13.50;;;8.40;;
20124;SDS011;10223;50.862;4.360;2023-06-10T00:18:38;13.38;;;9.18;;
20124;SDS011;10223;50.862;4.360;2023-06-10T00:21:05;15.85;;;9.95;;
20124;SDS011;10223;50.862;4.360;2023-06-10T00:23:34;13.25;;;9.30;;
20124;SDS011;10223;50.862;4.360;2023-06-10T00:26:02;10.73;;;9.32;;
20124;SDS011;10223;50.862;4.360;2023-06-10T00:28:29;12.98;;;8.88;;
20124;SDS011;10223;50.862;4.360;2023-06-10T00:30:56;11.20;;;8.77;;
20124;SDS011;10223;50.862;4.360;2023-06-10T00:33:23;10.45;;;8.57;;
20124;SDS011;10223;50.862;4.360;2023-06-10T00:35:50;13.95;;;9.48;;
20124;SDS011;10223;50.862;4.360;2023-06-10T00:38:17;11.93;;;8.10;;
20124;SDS011;10223;50.862;4.360;2023-06-10T00:40:45;14.10;;;9.80;;
20124;SDS011;10223;50.862;4.360;2023-06-10T00:43:12;14.35;;;8.00;;
20124;SDS011;10223;50.862;4.360;2023-06-10T00:45:41;11.60;;;8.38;;
20124;SDS011;10223;50.862;4.360;2023-06-10T00:48:08;12.07;;;8.20;;
20124;SDS011;10223;50.862;4.360;2023-06-10T00:50:35;11.00;;;8.45;;
20124;SDS011;10223;50.862;4.360;2023-06-10T00:53:04;11.90;;;8.75;;
20124;SDS011;10223;50.862;4.360;2023-06-10T00:55:32;11.48;;;8.48;;
20124;SDS011;10223;50.862;4.360;2023-06-10T00:58:01;9.18;;;8.18;;
20124;SDS011;10223;50.862;4.360;2023-06-10T01:00:29;13.60;;;8.93;;
20124;SDS011;10223;50.862;4.360;2023-06-10T01:02:56;10.52;;;8.88;;
20124;SDS011;10223;50.862;4.360;2023-06-10T01:05:23;14.13;;;8.75;;
20124;SDS011;10223;50.862;4.360;2023-06-10T01:07:53;14.18;;;8.48;;
20124;SDS011;10223;50.862;4.360;2023-06-10T01:10:28;12.10;;;8.48;;
20124;SDS011;10223;50.862;4.360;2023-06-10T01:13:01;10.63;;;8.90;;
20124;SDS011;10223;50.862;4.360;2023-06-10T01:15:29;13.93;;;8.23;;
20124;SDS011;10223;50.862;4.360;2023-06-10T01:17:57;11.10;;;7.82;;
20124;SDS011;10223;50.862;4.360;2023-06-10T01:20:26;9.40;;;8.32;;
20124;SDS011;10223;50.862;4.360;2023-06-10T01:22:56;12.02;;;8.35;;
20124;SDS011;10223;50.862;4.360;2023-06-10T01:25:23;9.25;;;8.10;;
20124;SDS011;10223;50.862;4.360;2023-06-10T01:27:54;11.60;;;7.50;;
20124;SDS011;10223;50.862;4.360;2023-06-10T01:30:29;8.95;;;7.55;;
20124;SDS011;10223;50.862;4.360;2023-06-10T01:33:03;22.90;;;8.98;;
20124;SDS011;10223;50.862;4.360;2023-06-10T01:35:32;9.68;;;7.90;;
20124;SDS011;10223;50.862;4.360;2023-06-10T01:38:04;10.30;;;7.93;;
20124;SDS011;10223;50.862;4.360;2023-06-10T01:40:32;11.15;;;7.88;;
20124;SDS011;10223;50.862;4.360;2023-06-10T01:42:59;11.32;;;7.78;;
20124;SDS011;10223;50.862;4.360;2023-06-10T01:45:26;8.55;;;7.65;;
20124;SDS011;10223;50.862;4.360;2023-06-10T01:47:53;8.50;;;7.57;;
20124;SDS011;10223;50.862;4.360;2023-06-10T01:50:20;13.63;;;7.85;;
20124;SDS011;10223;50.862;4.360;2023-06-10T01:52:47;9.90;;;7.60;;
20124;SDS011;10223;50.862;4.360;2023-06-10T01:55:16;14.50;;;8.02;;
20124;SDS011;10223;50.862;4.360;2023-06-10T01:57:43;10.85;;;8.20;;
20124;SDS011;10223;50.862;4.360;2023-06-10T02:00:10;17.38;;;9.02;;
20124;SDS011;10223;50.862;4.360;2023-06-10T02:02:38;14.32;;;8.38;;
20124;SDS011;10223;50.862;4.360;2023-06-10T02:05:05;13.30;;;8.25;;
20124;SDS011;10223;50.862;4.360;2023-06-10T02:07:32;11.85;;;8.90;;
20124;SDS011;10223;50.862;4.360;2023-06-10T02:09:59;14.55;;;8.77;;
20124;SDS011;10223;50.862;4.360;2023-06-10T02:12:27;10.05;;;7.90;;
20124;SDS011;10223;50.862;4.360;2023-06-10T02:14:54;14.40;;;8.13;;
20124;SDS011;10223;50.862;4.360;2023-06-10T02:17:21;14.25;;;7.82;;
20124;SDS011;10223;50.862;4.360;2023-06-10T02:19:48;10.65;;;8.25;;
20124;SDS011;10223;50.862;4.360;2023-06-10T02:22:19;9.23;;;7.90;;
20124;SDS011;10223;50.862;4.360;2023-06-10T02:24:46;9.90;;;8.30;;
20124;SDS011;10223;50.862;4.360;2023-06-10T02:27:14;13.70;;;8.57;;
20124;SDS011;10223;50.862;4.360;2023-06-10T02:29:42;12.52;;;8.43;;
20124;SDS011;10223;50.862;4.360;2023-06-10T02:32:09;14.93;;;8.90;;
20124;SDS011;10223;50.862;4.360;2023-06-10T02:34:36;12.63;;;8.48;;
20124;SDS011;10223;50.862;4.360;2023-06-10T02:37:04;10.73;;;8.18;;
20124;SDS011;10223;50.862;4.360;2023-06-10T02:39:30;11.18;;;8.07;;
20124;SDS011;10223;50.862;4.360;2023-06-10T02:41:57;11.05;;;8.07;;
20124;SDS011;10223;50.862;4.360;2023-06-10T02:44:25;11.07;;;8.57;;
20124;SDS011;10223;50.862;4.360;2023-06-10T02:46:53;11.63;;;8.00;;
20124;SDS011;10223;50.862;4.360;2023-06-10T02:49:20;12.75;;;8.70;;
20124;SDS011;10223;50.862;4.360;2023-06-10T02:51:47;10.35;;;8.80;;
20124;SDS011;10223;50.862;4.360;2023-06-10T02:54:15;15.50;;;9.00;;
20124;SDS011;10223;50.862;4.360;2023-06-10T02:56:42;12.32;;;8.65;;
20124;SDS011;10223;50.862;4.360;2023-06-10T02:59:08;17.67;;;8.70;;
20124;SDS011;10223;50.862;4.360;2023-06-10T03:01:35;11.57;;;8.38;;
20124;SDS011;10223;50.862;4.360;2023-06-10T03:04:04;14.18;;;9.07;;
20124;SDS011;10223;50.862;4.360;2023-06-10T03:06:31;11.43;;;8.45;;
20124;SDS011;10223;50.862;4.360;2023-06-10T03:09:00;21.20;;;8.70;;
20124;SDS011;10223;50.862;4.360;2023-06-10T03:11:28;13.45;;;7.88;;
20124;SDS011;10223;50.862;4.360;2023-06-10T03:13:55;12.20;;;8.73;;
20124;SDS011;10223;50.862;4.360;2023-06-10T03:16:22;11.90;;;8.75;;
20124;SDS011;10223;50.862;4.360;2023-06-10T03:18:50;17.42;;;8.95;;
20124;SDS011;10223;50.862;4.360;2023-06-10T03:21:19;15.27;;;9.35;;
20124;SDS011;10223;50.862;4.360;2023-06-10T03:23:46;12.02;;;8.93;;
20124;SDS011;10223;50.862;4.360;2023-06-10T03:26:13;10.63;;;8.48;;
20124;SDS011;10223;50.862;4.360;2023-06-10T03:28:41;10.88;;;8.80;;
20124;SDS011;10223;50.862;4.360;2023-06-10T03:31:07;12.40;;;8.98;;
20124;SDS011;10223;50.862;4.360;2023-06-10T03:33:34;13.85;;;8.90;;
20124;SDS011;10223;50.862;4.360;2023-06-10T03:36:02;12.73;;;8.40;;
20124;SDS011;10223;50.862;4.360;2023-06-10T03:38:31;11.15;;;9.32;;
20124;SDS011;10223;50.862;4.360;2023-06-10T03:40:58;11.52;;;9.00;;
20124;SDS011;10223;50.862;4.360;2023-06-10T03:43:25;14.52;;;9.23;;
20124;SDS011;10223;50.862;4.360;2023-06-10T03:45:52;14.50;;;8.95;;
20124;SDS011;10223;50.862;4.360;2023-06-10T03:48:19;12.90;;;9.00;;
20124;SDS011;10223;50.862;4.360;2023-06-10T03:50:46;13.50;;;8.52;;
20124;SDS011;10223;50.862;4.360;2023-06-10T03:53:15;11.68;;;9.65;;
20124;SDS011;10223;50.862;4.360;2023-06-10T03:55:44;12.15;;;9.45;;
20124;SDS011;10223;50.862;4.360;2023-06-10T03:58:11;12.80;;;9.15;;
20124;SDS011;10223;50.862;4.360;2023-06-10T04:00:38;13.20;;;9.88;;
20124;SDS011;10223;50.862;4.360;2023-06-10T04:03:07;12.55;;;9.13;;
20124;SDS011;10223;50.862;4.360;2023-06-10T04:05:39;19.90;;;8.68;;
20124;SDS011;10223;50.862;4.360;2023-06-10T04:08:06;15.05;;;9.18;;
20124;SDS011;10223;50.862;4.360;2023-06-10T04:10:33;14.52;;;9.48;;
20124;SDS011;10223;50.862;4.360;2023-06-10T04:13:01;15.05;;;9.18;;
20124;SDS011;10223;50.862;4.360;2023-06-10T04:15:29;13.25;;;10.32;;
20124;SDS011;10223;50.862;4.360;2023-06-10T04:17:57;11.75;;;9.65;;
20124;SDS011;10223;50.862;4.360;2023-06-10T04:20:24;13.32;;;9.20;;
20124;SDS011;10223;50.862;4.360;2023-06-10T04:22:51;13.35;;;8.98;;
20124;SDS011;10223;50.862;4.360;2023-06-10T04:25:18;13.35;;;9.15;;
20124;SDS011;10223;50.862;4.360;2023-06-10T04:27:45;13.55;;;9.60;;
20124;SDS011;10223;50.862;4.360;2023-06-10T04:30:14;11.75;;;9.50;;
20124;SDS011;10223;50.862;4.360;2023-06-10T04:32:43;12.90;;;9.13;;
20124;SDS011;10223;50.862;4.360;2023-06-10T04:35:11;13.63;;;9.85;;
20124;SDS011;10223;50.862;4.360;2023-06-10T04:37:38;13.93;;;9.65;;
20124;SDS011;10223;50.862;4.360;2023-06-10T04:40:05;18.05;;;10.43;;
20124;SDS011;10223;50.862;4.360;2023-06-10T04:42:33;13.02;;;9.25;;
20124;SDS011;10223;50.862;4.360;2023-06-10T04:45:00;15.00;;;9.77;;
20124;SDS011;10223;50.862;4.360;2023-06-10T04:47:29;14.52;;;9.23;;
20124;SDS011;10223;50.862;4.360;2023-06-10T04:49:58;15.05;;;9.50;;
20124;SDS011;10223;50.862;4.360;2023-06-10T04:52:25;17.00;;;8.95;;
20124;SDS011;10223;50.862;4.360;2023-06-10T04:54:51;13.18;;;8.77;;
20124;SDS011;10223;50.862;4.360;2023-06-10T04:57:18;13.65;;;9.98;;
20124;SDS011;10223;50.862;4.360;2023-06-10T04:59:46;13.35;;;9.13;;
20124;SDS011;10223;50.862;4.360;2023-06-10T05:02:13;13.90;;;9.50;;
20124;SDS011;10223;50.862;4.360;2023-06-10T05:04:41;13.10;;;9.27;;
20124;SDS011;10223;50.862;4.360;2023-06-10T05:07:08;13.75;;;9.40;;
20124;SDS011;10223;50.862;4.360;2023-06-10T05:09:35;15.05;;;9.02;;
20124;SDS011;10223;50.862;4.360;2023-06-10T05:12:02;16.05;;;9.30;;
20124;SDS011;10223;50.862;4.360;2023-06-10T05:14:29;16.50;;;9.70;;
20124;SDS011;10223;50.862;4.360;2023-06-10T05:16:57;12.95;;;9.57;;
20124;SDS011;10223;50.862;4.360;2023-06-10T05:19:24;13.45;;;8.82;;
20124;SDS011;10223;50.862;4.360;2023-06-10T05:21:52;12.38;;;9.20;;
20124;SDS011;10223;50.862;4.360;2023-06-10T05:24:19;12.57;;;9.60;;
20124;SDS011;10223;50.862;4.360;2023-06-10T05:26:46;16.20;;;10.30;;
20124;SDS011;10223;50.862;4.360;2023-06-10T05:29:13;12.55;;;9.50;;
20124;SDS011;10223;50.862;4.360;2023-06-10T05:31:41;13.27;;;10.35;;
20124;SDS011;10223;50.862;4.360;2023-06-10T05:34:08;12.23;;;9.90;;
20124;SDS011;10223;50.862;4.360;2023-06-10T05:36:35;15.57;;;8.85;;
20124;SDS011;10223;50.862;4.360;2023-06-10T05:39:03;10.02;;;8.95;;
20124;SDS011;10223;50.862;4.360;2023-06-10T05:41:30;12.18;;;9.45;;
20124;SDS011;10223;50.862;4.360;2023-06-10T05:43:57;13.15;;;9.02;;
20124;SDS011;10223;50.862;4.360;2023-06-10T05:46:24;13.07;;;9.32;;
20124;SDS011;10223;50.862;4.360;2023-06-10T05:48:51;12.00;;;9.73;;
20124;SDS011;10223;50.862;4.360;2023-06-10T05:51:18;13.48;;;9.52;;
20124;SDS011;10223;50.862;4.360;2023-06-10T05:53:45;18.13;;;9.40;;
20124;SDS011;10223;50.862;4.360;2023-06-10T05:56:14;12.85;;;9.65;;
20124;SDS011;10223;50.862;4.360;2023-06-10T05:58:41;15.68;;;9.48;;
20124;SDS011;10223;50.862;4.360;2023-06-10T06:01:07;12.70;;;9.38;;
20124;SDS011;10223;50.862;4.360;2023-06-10T06:03:34;14.63;;;9.20;;
20124;SDS011;10223;50.862;4.360;2023-06-10T06:06:02;12.30;;;9.48;;
20124;SDS011;10223;50.862;4.360;2023-06-10T06:08:29;12.65;;;9.70;;
20124;SDS011;10223;50.862;4.360;2023-06-10T06:10:56;13.68;;;9.55;;
20124;SDS011;10223;50.862;4.360;2023-06-10T06:13:25;12.70;;;9.43;;
20124;SDS011;10223;50.862;4.360;2023-06-10T06:15:52;12.07;;;8.93;;
20124;SDS011;10223;50.862;4.360;2023-06-10T06:18:19;12.60;;;9.02;;
20124;SDS011;10223;50.862;4.360;2023-06-10T06:20:46;21.02;;;9.25;;
20124;SDS011;10223;50.862;4.360;2023-06-10T06:23:12;14.18;;;9.30;;
20124;SDS011;10223;50.862;4.360;2023-06-10T06:25:39;15.45;;;9.80;;
20124;SDS011;10223;50.862;4.360;2023-06-10T06:28:06;11.90;;;9.68;;
20124;SDS011;10223;50.862;4.360;2023-06-10T06:30:35;17.33;;;9.05;;
20124;SDS011;10223;50.862;4.360;2023-06-10T06:33:02;10.10;;;9.05;;
20124;SDS011;10223;50.862;4.360;2023-06-10T06:35:30;10.18;;;7.72;;
20124;SDS011;10223;50.862;4.360;2023-06-10T06:37:57;15.48;;;9.20;;
20124;SDS011;10223;50.862;4.360;2023-06-10T06:40:24;13.13;;;9.30;;
20124;SDS011;10223;50.862;4.360;2023-06-10T06:42:51;10.88;;;8.60;;
20124;SDS011;10223;50.862;4.360;2023-06-10T06:45:18;10.75;;;8.77;;
20124;SDS011;10223;50.862;4.360;2023-06-10T06:47:47;15.50;;;8.30;;
20124;SDS011;10223;50.862;4.360;2023-06-10T06:50:14;14.15;;;8.98;;
20124;SDS011;10223;50.862;4.360;2023-06-10T06:52:41;11.63;;;9.13;;
20124;SDS011;10223;50.862;4.360;2023-06-10T06:55:08;12.60;;;9.30;;
20124;SDS011;10223;50.862;4.360;2023-06-10T06:57:35;12.50;;;8.77;;
20124;SDS011;10223;50.862;4.360;2023-06-10T07:00:03;15.95;;;9.23;;
20124;SDS011;10223;50.862;4.360;2023-06-10T07:02:30;10.35;;;8.65;;
20124;SDS011;10223;50.862;4.360;2023-06-10T07:04:59;16.17;;;9.20;;
20124;SDS011;10223;50.862;4.360;2023-06-10T07:07:26;13.65;;;8.65;;
20124;SDS011;10223;50.862;4.360;2023-06-10T07:09:53;11.27;;;10.00;;
20124;SDS011;10223;50.862;4.360;2023-06-10T07:12:20;10.52;;;9.07;;
20124;SDS011;10223;50.862;4.360;2023-06-10T07:14:49;11.50;;;8.27;;
20124;SDS011;10223;50.862;4.360;2023-06-10T07:17:15;14.77;;;8.48;;
20124;SDS011;10223;50.862;4.360;2023-06-10T07:19:43;17.08;;;9.95;;
20124;SDS011;10223;50.862;4.360;2023-06-10T07:22:11;15.00;;;8.45;;
20124;SDS011;10223;50.862;4.360;2023-06-10T07:24:38;9.52;;;8.10;;
20124;SDS011;10223;50.862;4.360;2023-06-10T07:27:05;12.90;;;8.43;;
20124;SDS011;10223;50.862;4.360;2023-06-10T07:29:32;11.73;;;7.75;;
20124;SDS011;10223;50.862;4.360;2023-06-10T07:32:00;12.00;;;8.15;;
20124;SDS011;10223;50.862;4.360;2023-06-10T07:34:27;12.30;;;8.52;;
20124;SDS011;10223;50.862;4.360;2023-06-10T07:36:54;11.90;;;8.23;;
20124;SDS011;10223;50.862;4.360;2023-06-10T07:39:23;10.27;;;8.23;;
20124;SDS011;10223;50.862;4.360;2023-06-10T07:41:49;12.70;;;7.80;;
20124;SDS011;10223;50.862;4.360;2023-06-10T07:44:18;11.10;;;7.72;;
20124;SDS011;10223;50.862;4.360;2023-06-10T07:46:45;12.38;;;8.40;;
20124;SDS011;10223;50.862;4.360;2023-06-10T07:49:12;11.55;;;7.53;;
20124;SDS011;10223;50.862;4.360;2023-06-10T07:51:39;12.10;;;8.30;;
20124;SDS011;10223;50.862;4.360;2023-06-10T07:54:06;11.88;;;7.85;;
20124;SDS011;10223;50.862;4.360;2023-06-10T07:56:34;8.82;;;7.70;;
20124;SDS011;10223;50.862;4.360;2023-06-10T07:59:01;10.15;;;7.35;;
20124;SDS011;10223;50.862;4.360;2023-06-10T08:01:28;11.00;;;7.43;;
20124;SDS011;10223;50.862;4.360;2023-06-10T08:03:56;11.88;;;7.90;;
20124;SDS011;10223;50.862;4.360;2023-06-10T08:06:23;15.75;;;7.93;;
20124;SDS011;10223;50.862;4.360;2023-06-10T08:08:50;9.43;;;7.25;;
20124;SDS011;10223;50.862;4.360;2023-06-10T08:11:17;16.40;;;7.80;;
20124;SDS011;10223;50.862;4.360;2023-06-10T08:13:45;10.63;;;7.43;;
20124;SDS011;10223;50.862;4.360;2023-06-10T08:16:12;10.95;;;7.55;;
20124;SDS011;10223;50.862;4.360;2023-06-10T08:18:39;11.10;;;7.78;;
20124;SDS011;10223;50.862;4.360;2023-06-10T08:21:06;14.55;;;7.75;;
20124;SDS011;10223;50.862;4.360;2023-06-10T08:23:33;11.07;;;7.65;;
20124;SDS011;10223;50.862;4.360;2023-06-10T08:26:00;11.73;;;7.53;;
20124;SDS011;10223;50.862;4.360;2023-06-10T08:28:27;10.85;;;7.40;;
20124;SDS011;10223;50.862;4.360;2023-06-10T08:30:56;10.27;;;7.00;;
20124;SDS011;10223;50.862;4.360;2023-06-10T08:33:22;9.20;;;6.75;;
20124;SDS011;10223;50.862;4.360;2023-06-10T08:35:49;8.88;;;6.82;;
20124;SDS011;10223;50.862;4.360;2023-06-10T08:38:16;8.65;;;7.40;;
20124;SDS011;10223;50.862;4.360;2023-06-10T08:40:43;10.70;;;6.57;;
20124;SDS011;10223;50.862;4.360;2023-06-10T08:43:14;7.47;;;6.68;;
20124;SDS011;10223;50.862;4.360;2023-06-10T08:45:47;7.68;;;6.60;;
20124;SDS011;10223;50.862;4.360;2023-06-10T08:48:17;7.90;;;6.80;;
20124;SDS011;10223;50.862;4.360;2023-06-10T08:50:46;9.52;;;6.50;;
20124;SDS011;10223;50.862;4.360;2023-06-10T08:53:16;8.68;;;6.13;;
20124;SDS011;10223;50.862;4.360;2023-06-10T08:55:46;10.30;;;6.90;;
20124;SDS011;10223;50.862;4.360;2023-06-10T08:58:17;9.20;;;6.45;;
20124;SDS011;10223;50.862;4.360;2023-06-10T09:00:45;10.70;;;6.25;;
20124;SDS011;10223;50.862;4.360;2023-06-10T09:03:12;10.18;;;6.57;;
20124;SDS011;10223;50.862;4.360;2023-06-10T09:05:40;7.57;;;6.28;;
20124;SDS011;10223;50.862;4.360;2023-06-10T09:08:08;8.10;;;6.75;;
20124;SDS011;10223;50.862;4.360;2023-06-10T09:10:35;8.50;;;6.43;;
20124;SDS011;10223;50.862;4.360;2023-06-10T09:13:02;8.88;;;6.38;;
20124;SDS011;10223;50.862;4.360;2023-06-10T09:15:29;9.93;;;5.97;;
20124;SDS011;10223;50.862;4.360;2023-06-10T09:17:56;7.78;;;6.05;;
20124;SDS011;10223;50.862;4.360;2023-06-10T09:20:24;8.35;;;5.93;;
20124;SDS011;10223;50.862;4.360;2023-06-10T09:22:53;7.43;;;5.43;;
20124;SDS011;10223;50.862;4.360;2023-06-10T09:25:20;7.30;;;5.88;;
20124;SDS011;10223;50.862;4.360;2023-06-10T09:28:01;8.35;;;5.78;;
20124;SDS011;10223;50.862;4.360;2023-06-10T09:30:29;15.57;;;6.25;;
20124;SDS011;10223;50.862;4.360;2023-06-10T09:32:57;7.68;;;6.80;;
20124;SDS011;10223;50.862;4.360;2023-06-10T09:35:25;12.30;;;5.95;;
20124;SDS011;10223;50.862;4.360;2023-06-10T09:37:54;8.60;;;5.47;;
20124;SDS011;10223;50.862;4.360;2023-06-10T09:40:22;6.57;;;5.50;;
20124;SDS011;10223;50.862;4.360;2023-06-10T09:42:52;7.38;;;5.75;;
20124;SDS011;10223;50.862;4.360;2023-06-10T09:45:21;11.80;;;6.13;;
20124;SDS011;10223;50.862;4.360;2023-06-10T09:47:51;15.25;;;6.20;;
20124;SDS011;10223;50.862;4.360;2023-06-10T09:50:18;9.90;;;5.88;;
20124;SDS011;10223;50.862;4.360;2023-06-10T09:52:45;11.25;;;6.00;;
20124;SDS011;10223;50.862;4.360;2023-06-10T09:55:14;10.35;;;5.90;;
20124;SDS011;10223;50.862;4.360;2023-06-10T09:57:42;10.60;;;6.03;;
20124;SDS011;10223;50.862;4.360;2023-06-10T10:00:13;8.00;;;6.53;;
20124;SDS011;10223;50.862;4.360;2023-06-10T10:02:44;7.93;;;5.97;;
20124;SDS011;10223;50.862;4.360;2023-06-10T10:05:13;6.90;;;5.90;;
20124;SDS011;10223;50.862;4.360;2023-06-10T10:07:40;7.35;;;5.50;;
20124;SDS011;10223;50.862;4.360;2023-06-10T10:10:07;7.65;;;6.00;;
20124;SDS011;10223;50.862;4.360;2023-06-10T10:12:36;11.15;;;6.00;;
20124;SDS011;10223;50.862;4.360;2023-06-10T10:15:05;9.23;;;5.38;;
20124;SDS011;10223;50.862;4.360;2023-06-10T10:17:34;7.57;;;6.07;;
20124;SDS011;10223;50.862;4.360;2023-06-10T10:20:04;9.80;;;6.18;;
20124;SDS011;10223;50.862;4.360;2023-06-10T10:22:35;8.32;;;6.88;;
20124;SDS011;10223;50.862;4.360;2023-06-10T10:25:06;9.52;;;6.38;;
20124;SDS011;10223;50.862;4.360;2023-06-10T10:27:40;6.95;;;5.95;;
20124;SDS011;10223;50.862;4.360;2023-06-10T10:30:11;7.50;;;6.05;;
20124;SDS011;10223;50.862;4.360;2023-06-10T10:32:40;7.60;;;6.15;;
20124;SDS011;10223;50.862;4.360;2023-06-10T10:35:16;11.50;;;5.80;;
20124;SDS011;10223;50.862;4.360;2023-06-10T10:37:46;9.13;;;6.45;;
20124;SDS011;10223;50.862;4.360;2023-06-10T10:40:14;6.78;;;6.03;;
20124;SDS011;10223;50.862;4.360;2023-06-10T10:42:43;6.57;;;5.85;;
20124;SDS011;10223;50.862;4.360;2023-06-10T10:45:10;8.93;;;6.10;;
20124;SDS011;10223;50.862;4.360;2023-06-10T10:47:38;9.77;;;6.07;;
20124;SDS011;10223;50.862;4.360;2023-06-10T10:50:20;6.82;;;5.93;;
20124;SDS011;10223;50.862;4.360;2023-06-10T10:52:51;7.38;;;6.43;;
20124;SDS011;10223;50.862;4.360;2023-06-10T10:55:19;10.05;;;6.03;;
20124;SDS011;10223;50.862;4.360;2023-06-10T10:57:53;6.88;;;5.55;;
20124;SDS011;10223;50.862;4.360;2023-06-10T11:00:30;10.13;;;6.57;;
20124;SDS011;10223;50.862;4.360;2023-06-10T11:02:58;10.75;;;5.63;;
20124;SDS011;10223;50.862;4.360;2023-06-10T11:05:36;7.07;;;5.00;;
20124;SDS011;10223;50.862;4.360;2023-06-10T11:08:07;5.50;;;4.63;;
20124;SDS011;10223;50.862;4.360;2023-06-10T11:10:35;6.97;;;5.10;;
20124;SDS011;10223;50.862;4.360;2023-06-10T11:13:06;8.05;;;5.57;;
20124;SDS011;10223;50.862;4.360;2023-06-10T11:15:38;9.25;;;5.53;;
20124;SDS011;10223;50.862;4.360;2023-06-10T11:18:09;8.10;;;5.07;;
20124;SDS011;10223;50.862;4.360;2023-06-10T11:20:55;5.30;;;4.80;;
20124;SDS011;10223;50.862;4.360;2023-06-10T11:23:38;7.53;;;5.15;;
20124;SDS011;10223;50.862;4.360;2023-06-10T11:26:11;10.93;;;5.13;;
20124;SDS011;10223;50.862;4.360;2023-06-10T11:28:42;6.47;;;4.72;;
20124;SDS011;10223;50.862;4.360;2023-06-10T11:31:29;8.82;;;5.13;;
20124;SDS011;10223;50.862;4.360;2023-06-10T11:33:57;7.38;;;5.45;;
20124;SDS011;10223;50.862;4.360;2023-06-10T11:36:27;9.23;;;5.75;;
20124;SDS011;10223;50.862;4.360;2023-06-10T11:38:55;8.52;;;6.15;;
20124;SDS011;10223;50.862;4.360;2023-06-10T11:41:24;9.63;;;6.10;;
20124;SDS011;10223;50.862;4.360;2023-06-10T11:43:52;8.05;;;5.43;;
20124;SDS011;10223;50.862;4.360;2023-06-10T11:46:19;10.80;;;6.38;;
20124;SDS011;10223;50.862;4.360;2023-06-10T11:48:49;8.88;;;6.38;;
20124;SDS011;10223;50.862;4.360;2023-06-10T11:51:17;20.13;;;5.65;;
20124;SDS011;10223;50.862;4.360;2023-06-10T11:53:46;7.32;;;5.50;;
20124;SDS011;10223;50.862;4.360;2023-06-10T11:56:14;7.93;;;6.03;;
20124;SDS011;10223;50.862;4.360;2023-06-10T11:58:51;7.07;;;5.40;;
20124;SDS011;10223;50.862;4.360;2023-06-10T12:01:19;7.15;;;5.97;;
20124;SDS011;10223;50.862;4.360;2023-06-10T12:03:47;10.18;;;6.72;;
20124;SDS011;10223;50.862;4.360;2023-06-10T12:06:22;15.43;;;9.75;;
20124;SDS011;10223;50.862;4.360;2023-06-10T12:08:51;9.98;;;6.20;;
20124;SDS011;10223;50.862;4.360;2023-06-10T12:11:17;12.38;;;5.95;;
20124;SDS011;10223;50.862;4.360;2023-06-10T12:13:45;11.35;;;6.93;;
20124;SDS011;10223;50.862;4.360;2023-06-10T12:16:16;11.90;;;7.30;;
20124;SDS011;10223;50.862;4.360;2023-06-10T12:18:44;13.05;;;7.38;;
20124;SDS011;10223;50.862;4.360;2023-06-10T12:21:16;13.10;;;6.55;;
20124;SDS011;10223;50.862;4.360;2023-06-10T12:26:38;6.53;;;5.50;;
20124;SDS011;10223;50.862;4.360;2023-06-10T12:29:15;9.38;;;6.28;;
20124;SDS011;10223;50.862;4.360;2023-06-10T12:31:53;7.32;;;6.03;;
20124;SDS011;10223;50.862;4.360;2023-06-10T12:34:27;9.75;;;7.35;;
20124;SDS011;10223;50.862;4.360;2023-06-10T12:36:55;10.00;;;6.32;;
20124;SDS011;10223;50.862;4.360;2023-06-10T12:39:24;12.85;;;6.55;;
20124;SDS011;10223;50.862;4.360;2023-06-10T12:41:51;10.45;;;6.90;;
20124;SDS011;10223;50.862;4.360;2023-06-10T12:44:18;11.38;;;6.78;;
20124;SDS011;10223;50.862;4.360;2023-06-10T12:46:54;10.55;;;7.05;;
20124;SDS011;10223;50.862;4.360;2023-06-10T12:49:21;14.32;;;6.47;;
20124;SDS011;10223;50.862;4.360;2023-06-10T12:51:48;6.60;;;5.85;;
20124;SDS011;10223;50.862;4.360;2023-06-10T12:54:15;7.93;;;5.85;;
20124;SDS011;10223;50.862;4.360;2023-06-10T12:56:43;10.25;;;5.70;;
20124;SDS011;10223;50.862;4.360;2023-06-10T12:59:10;8.82;;;6.63;;
20124;SDS011;10223;50.862;4.360;2023-06-10T13:01:37;6.90;;;6.20;;
20124;SDS011;10223;50.862;4.360;2023-06-10T13:04:04;11.10;;;7.30;;
20124;SDS011;10223;50.862;4.360;2023-06-10T13:06:32;10.63;;;7.65;;
20124;SDS011;10223;50.862;4.360;2023-06-10T13:09:02;7.35;;;6.25;;
20124;SDS011;10223;50.862;4.360;2023-06-10T13:11:30;10.23;;;6.70;;
20124;SDS011;10223;50.862;4.360;2023-06-10T13:13:58;11.52;;;7.03;;
20124;SDS011;10223;50.862;4.360;2023-06-10T13:16:25;11.18;;;6.15;;
20124;SDS011;10223;50.862;4.360;2023-06-10T13:18:53;7.85;;;6.25;;
20124;SDS011;10223;50.862;4.360;2023-06-10T13:21:20;8.52;;;6.22;;
20124;SDS011;10223;50.862;4.360;2023-06-10T13:23:47;8.00;;;6.18;;
20124;SDS011;10223;50.862;4.360;2023-06-10T13:26:15;7.10;;;5.97;;
20124;SDS011;10223;50.862;4.360;2023-06-10T13:28:42;7.28;;;6.47;;
20124;SDS011;10223;50.862;4.360;2023-06-10T13:31:10;7.25;;;6.18;;
20124;SDS011;10223;50.862;4.360;2023-06-10T13:33:37;9.93;;;6.20;;
20124;SDS011;10223;50.862;4.360;2023-06-10T13:36:05;8.82;;;6.40;;
20124;SDS011;10223;50.862;4.360;2023-06-10T13:38:32;9.05;;;6.25;;
20124;SDS011;10223;50.862;4.360;2023-06-10T13:40:59;8.48;;;6.20;;
20124;SDS011;10223;50.862;4.360;2023-06-10T13:43:26;10.45;;;6.65;;
20124;SDS011;10223;50.862;4.360;2023-06-10T13:45:53;7.90;;;6.25;;
20124;SDS011;10223;50.862;4.360;2023-06-10T13:48:24;8.45;;;5.63;;
20124;SDS011;10223;50.862;4.360;2023-06-10T13:50:51;6.97;;;6.28;;
20124;SDS011;10223;50.862;4.360;2023-06-10T13:53:18;9.52;;;7.32;;
20124;SDS011;10223;50.862;4.360;2023-06-10T13:55:45;12.80;;;6.45;;
20124;SDS011;10223;50.862;4.360;2023-06-10T13:58:12;7.78;;;6.22;;
20124;SDS011;10223;50.862;4.360;2023-06-10T14:00:39;9.48;;;5.68;;
20124;SDS011;10223;50.862;4.360;2023-06-10T14:03:06;7.15;;;6.35;;
20124;SDS011;10223;50.862;4.360;2023-06-10T14:05:34;11.10;;;6.78;;
20124;SDS011;10223;50.862;4.360;2023-06-10T14:08:01;9.07;;;7.43;;
20124;SDS011;10223;50.862;4.360;2023-06-10T14:10:28;8.93;;;6.10;;
20124;SDS011;10223;50.862;4.360;2023-06-10T14:12:55;8.68;;;6.65;;
20124;SDS011;10223;50.862;4.360;2023-06-10T14:15:22;10.40;;;6.70;;
20124;SDS011;10223;50.862;4.360;2023-06-10T14:17:49;7.97;;;7.18;;
20124;SDS011;10223;50.862;4.360;2023-06-10T14:20:16;9.57;;;6.53;;
20124;SDS011;10223;50.862;4.360;2023-06-10T14:22:44;8.43;;;7.00;;
20124;SDS011;10223;50.862;4.360;2023-06-10T14:25:11;11.93;;;6.97;;
20124;SDS011;10223;50.862;4.360;2023-06-10T14:27:38;12.77;;;6.63;;
20124;SDS011;10223;50.862;4.360;2023-06-10T14:30:05;11.93;;;6.60;;
20124;SDS011;10223;50.862;4.360;2023-06-10T14:32:33;11.18;;;6.72;;
20124;SDS011;10223;50.862;4.360;2023-06-10T14:35:00;10.80;;;6.97;;
20124;SDS011;10223;50.862;4.360;2023-06-10T14:37:27;9.00;;;6.80;;
20124;SDS011;10223;50.862;4.360;2023-06-10T14:39:55;8.95;;;7.05;;
20124;SDS011;10223;50.862;4.360;2023-06-10T14:42:22;9.98;;;6.97;;
20124;SDS011;10223;50.862;4.360;2023-06-10T14:44:49;7.07;;;6.38;;
20124;SDS011;10223;50.862;4.360;2023-06-10T14:47:16;9.95;;;6.43;;